Upstream stations:
Downstream station:
SHEF ID: DEKT2 Red River near De Kalb, TX
STATION TYPE:
Regulating: Stage = 23.70, Flow = 59206
PRECIP STAGE RIV-FLOW BAT-LOAD
in ft cfs volt
Ccp-Rev Ccp-Rev Ccp-Rev Ccp-Rev
(US/Central)
06/11 00:00 0.00 14.12 18225 12.73
06/11 01:00 0.00 14.17 18412 12.73
06/11 02:00 0.00 14.24 18674 12.73
06/11 03:00 0.00 14.29 18862 12.73
06/11 04:00 0.00 14.35 19089 12.65
06/11 05:00 0.00 14.40 19279 12.65
06/11 06:00 0.00 14.46 19509 12.65
06/11 07:00 0.00 14.51 19701 12.65
06/11 08:00 0.00 14.56 19894 12.65
06/11 09:00 0.00 14.60 20049 12.89
06/11 10:00 0.00 14.62 20126 13.37
06/11 11:00 0.00 14.68 20360 13.29
06/11 12:00 0.00 14.75 20634 13.29
06/11 13:00 0.00 14.78 20752 13.29
06/11 14:00 0.00 14.82 20910 13.29
06/11 15:00 0.00 14.86 21069 13.37
06/11 16:00 0.00 14.89 21188 13.29
06/11 17:00 0.00 14.93 21347 13.29
06/11 18:00 0.00 14.98 21547 13.21
06/11 19:00 0.00 15.03 21748 13.05
06/11 20:00 0.00 15.08 21950 12.97
06/11 21:00 0.00 15.11 22071 12.89
06/11 22:00 0.00 15.16 22274 12.89
06/11 23:00 ---- ---- ---- ----